createdAt,value
2023-07-21T00:01:56.538Z,9.15
2023-07-21T00:04:34.369Z,7.43
2023-07-21T00:07:08.178Z,6.93
2023-07-21T00:09:42.993Z,8.82
2023-07-21T00:12:15.941Z,7.07
2023-07-21T00:14:46.811Z,5.38
2023-07-21T00:17:17.615Z,8.02
2023-07-21T00:19:48.258Z,7.35
2023-07-21T00:22:18.387Z,6.53
2023-07-21T00:24:52.802Z,4.68
2023-07-21T00:27:34.652Z,6.38
2023-07-21T00:30:10.101Z,6.20
2023-07-21T00:32:45.888Z,5.40
2023-07-21T00:35:16.462Z,3.97
2023-07-21T00:37:49.640Z,6.03
2023-07-21T00:40:23.287Z,6.25
2023-07-21T00:42:53.268Z,4.85
2023-07-21T00:45:25.426Z,3.72
2023-07-21T00:47:59.894Z,5.03
2023-07-21T00:50:35.437Z,4.97
2023-07-21T00:53:07.508Z,4.47
2023-07-21T00:55:40.141Z,3.67
2023-07-21T00:58:14.064Z,4.13
2023-07-21T01:00:49.533Z,4.20
2023-07-21T01:03:21.615Z,5.82
2023-07-21T01:05:56.048Z,5.47
2023-07-21T01:08:27.104Z,8.93
2023-07-21T01:10:58.941Z,7.15
2023-07-21T01:13:30.432Z,10.40
2023-07-21T01:16:01.915Z,6.13
2023-07-21T01:18:38.341Z,5.93
2023-07-21T01:21:10.686Z,3.45
2023-07-21T01:23:54.016Z,4.53
2023-07-21T01:26:25.278Z,7.95
2023-07-21T01:28:56.117Z,6.28
2023-07-21T01:31:27.030Z,7.45
2023-07-21T01:34:00.727Z,7.03
2023-07-21T01:36:37.559Z,4.60
2023-07-21T01:39:11.779Z,7.28
2023-07-21T01:41:47.422Z,7.45
2023-07-21T01:44:24.452Z,5.05
2023-07-21T01:47:05.278Z,5.75
2023-07-21T01:49:37.225Z,5.18
2023-07-21T01:52:08.076Z,5.00
2023-07-21T01:54:50.630Z,5.80
2023-07-21T01:57:27.230Z,5.78
2023-07-21T01:59:59.993Z,5.78
2023-07-21T02:02:31.613Z,5.53
2023-07-21T02:05:02.942Z,5.82
2023-07-21T02:07:37.084Z,6.00
2023-07-21T02:10:11.066Z,4.28
2023-07-21T02:12:42.414Z,6.10
2023-07-21T02:15:17.598Z,6.20
2023-07-21T02:17:50.529Z,6.43
2023-07-21T02:20:21.296Z,10.02
2023-07-21T02:22:54.914Z,8.50
2023-07-21T02:25:32.506Z,9.57
2023-07-21T02:28:05.554Z,10.05
2023-07-21T02:30:39.189Z,9.80
2023-07-21T02:33:12.748Z,8.43
2023-07-21T02:35:43.248Z,11.48
2023-07-21T02:38:13.739Z,8.57
2023-07-21T02:40:48.988Z,13.60
2023-07-21T02:43:20.208Z,10.55
2023-07-21T02:45:53.959Z,10.95
2023-07-21T02:48:24.916Z,12.02
2023-07-21T02:51:01.240Z,10.10
2023-07-21T02:53:36.793Z,9.60
2023-07-21T02:56:07.712Z,11.82
2023-07-21T02:58:57.995Z,10.13
2023-07-21T03:01:29.074Z,10.60
2023-07-21T03:04:00.038Z,8.05
2023-07-21T03:06:32.602Z,10.05
2023-07-21T03:09:03.257Z,11.77
2023-07-21T03:11:33.878Z,10.35
2023-07-21T03:14:18.311Z,10.35
2023-07-21T03:16:52.823Z,15.68
2023-07-21T03:19:28.862Z,10.93
2023-07-21T03:22:00.548Z,10.55
2023-07-21T03:24:33.922Z,12.05
2023-07-21T03:27:06.144Z,12.65
2023-07-21T03:29:40.390Z,12.25
2023-07-21T03:32:12.636Z,10.00
2023-07-21T03:34:42.972Z,10.57
2023-07-21T03:37:13.406Z,10.35
2023-07-21T03:39:47.338Z,11.45
2023-07-21T03:42:17.838Z,11.38
2023-07-21T03:44:51.993Z,11.93
2023-07-21T03:47:22.482Z,10.10
2023-07-21T03:50:00.742Z,12.35
2023-07-21T03:52:32.462Z,14.15
2023-07-21T03:55:03.544Z,11.27
2023-07-21T03:57:34.851Z,13.50
2023-07-21T04:00:07.920Z,12.82
2023-07-21T04:02:47.804Z,12.07
2023-07-21T04:05:22.975Z,10.60
2023-07-21T04:08:03.361Z,13.40
2023-07-21T04:10:36.733Z,11.07
2023-07-21T04:13:17.629Z,12.70
2023-07-21T04:15:59.744Z,10.45
2023-07-21T04:18:30.445Z,11.30
2023-07-21T04:21:03.317Z,12.75
2023-07-21T04:23:37.218Z,10.32
2023-07-21T04:26:09.361Z,14.02
2023-07-21T04:28:43.905Z,13.18
2023-07-21T04:31:14.546Z,11.65
2023-07-21T04:33:59.794Z,11.52
2023-07-21T04:36:33.504Z,13.18
2023-07-21T04:39:07.001Z,10.57
2023-07-21T04:41:38.072Z,11.70
2023-07-21T04:44:10.500Z,10.18
2023-07-21T04:46:40.798Z,12.18
2023-07-21T04:49:15.588Z,9.95
2023-07-21T04:51:49.652Z,12.15
2023-07-21T04:54:23.016Z,16.30
2023-07-21T04:56:54.845Z,12.30
2023-07-21T04:59:28.366Z,12.38
2023-07-21T05:01:59.336Z,10.75
2023-07-21T05:04:30.512Z,8.30
2023-07-21T05:07:03.426Z,11.98
2023-07-21T05:09:36.250Z,13.00
2023-07-21T05:12:13.109Z,10.27
2023-07-21T05:17:42.461Z,13.38
2023-07-21T05:20:31.258Z,14.68
2023-07-21T05:23:24.007Z,12.80
2023-07-21T05:26:03.142Z,15.23
2023-07-21T05:28:37.951Z,12.70
2023-07-21T05:31:09.807Z,16.25
2023-07-21T05:33:57.443Z,13.85
2023-07-21T05:36:31.768Z,15.68
2023-07-21T05:39:02.111Z,18.70
2023-07-21T05:41:33.768Z,14.32
2023-07-21T05:44:04.044Z,14.68
2023-07-21T05:46:36.492Z,15.20
2023-07-21T05:49:10.098Z,16.15
2023-07-21T05:51:41.891Z,13.85
2023-07-21T05:54:33.054Z,15.15
2023-07-21T05:57:23.791Z,17.17
2023-07-21T05:59:54.586Z,14.07
2023-07-21T06:02:25.367Z,14.57
2023-07-21T06:05:00.050Z,17.42
2023-07-21T06:07:48.863Z,15.25
2023-07-21T06:10:45.072Z,14.48
2023-07-21T06:13:39.012Z,15.38
2023-07-21T06:16:35.481Z,16.50
2023-07-21T06:19:07.141Z,13.82
2023-07-21T06:21:37.833Z,12.32
2023-07-21T06:24:08.246Z,16.05
2023-07-21T06:26:41.039Z,15.27
2023-07-21T06:29:13.761Z,13.65
2023-07-21T06:31:47.378Z,15.20
2023-07-21T06:34:39.703Z,13.20
2023-07-21T06:37:27.249Z,13.90
2023-07-21T06:40:13.603Z,13.77
2023-07-21T06:42:59.911Z,14.80
2023-07-21T06:45:53.460Z,18.17
2023-07-21T06:48:40.774Z,16.08
2023-07-21T06:51:18.741Z,14.70
2023-07-21T06:53:53.740Z,13.23
2023-07-21T06:56:30.981Z,12.70
2023-07-21T06:59:01.926Z,13.60
2023-07-21T07:01:32.419Z,11.13
2023-07-21T07:04:02.914Z,14.52
2023-07-21T07:06:33.231Z,13.43
2023-07-21T07:09:03.721Z,15.25
2023-07-21T07:11:33.964Z,16.65
2023-07-21T07:14:04.381Z,12.82
2023-07-21T07:16:34.616Z,13.35
2023-07-21T07:19:06.869Z,12.98
2023-07-21T07:21:39.498Z,15.25
2023-07-21T07:24:14.904Z,11.70
2023-07-21T07:26:49.850Z,11.85
2023-07-21T07:29:24.172Z,10.57
2023-07-21T07:31:54.562Z,12.02
2023-07-21T07:34:25.032Z,14.55
2023-07-21T07:36:57.075Z,13.93
2023-07-21T07:39:32.685Z,14.30
2023-07-21T07:42:12.028Z,14.50
2023-07-21T07:44:47.849Z,11.30
2023-07-21T07:47:18.551Z,13.25
2023-07-21T07:49:49.110Z,12.98
2023-07-21T07:52:20.754Z,11.82
2023-07-21T07:54:52.352Z,15.02
2023-07-21T07:57:32.667Z,15.07
2023-07-21T08:00:17.096Z,12.98
2023-07-21T08:03:07.410Z,11.13
2023-07-21T08:21:19.631Z,11.30
2023-07-21T08:35:43.396Z,6.38
2023-07-21T08:38:14.361Z,7.25
2023-07-21T08:41:01.531Z,7.60
2023-07-21T08:44:15.898Z,7.72
2023-07-21T08:47:17.250Z,7.50
2023-07-21T08:50:05.941Z,8.98
2023-07-21T08:52:52.722Z,9.15
2023-07-21T08:55:52.547Z,9.50
2023-07-21T08:58:37.373Z,7.50
2023-07-21T09:04:24.311Z,7.75
2023-07-21T09:07:08.779Z,6.40
2023-07-21T09:09:39.625Z,6.25
2023-07-21T09:12:21.498Z,9.48
2023-07-21T09:14:54.593Z,7.95
2023-07-21T09:17:28.108Z,7.18
2023-07-21T09:19:58.527Z,6.63
2023-07-21T09:22:35.684Z,8.77
2023-07-21T09:25:10.888Z,7.13
2023-07-21T09:28:14.701Z,8.93
2023-07-21T09:31:38.089Z,7.72
2023-07-21T09:34:37.950Z,6.47
2023-07-21T09:37:12.291Z,7.00
2023-07-21T09:39:53.502Z,8.38
2023-07-21T09:42:30.270Z,7.65
2023-07-21T09:45:07.136Z,7.38
2023-07-21T09:47:50.996Z,7.38
2023-07-21T09:50:25.431Z,6.85
2023-07-21T09:52:57.651Z,9.25
2023-07-21T09:55:43.705Z,6.32
2023-07-21T09:58:19.589Z,9.35
2023-07-21T10:00:55.082Z,9.25
2023-07-21T10:03:29.229Z,8.32
2023-07-21T10:06:04.327Z,8.50
2023-07-21T10:08:37.493Z,7.55
2023-07-21T10:11:12.094Z,8.07
2023-07-21T10:13:50.861Z,6.93
2023-07-21T10:16:24.429Z,8.65
2023-07-21T10:19:14.804Z,8.00
2023-07-21T10:21:56.150Z,7.40
2023-07-21T10:24:33.607Z,7.90
2023-07-21T10:27:08.390Z,7.63
2023-07-21T10:29:39.924Z,7.93
2023-07-21T10:32:13.307Z,11.00
2023-07-21T10:34:46.814Z,8.07
2023-07-21T10:37:26.770Z,8.68
2023-07-21T10:48:35.149Z,8.27
2023-07-21T10:51:29.368Z,8.13
2023-07-21T10:54:07.293Z,6.05
2023-07-21T10:56:45.157Z,8.13
2023-07-21T10:59:22.889Z,9.10
2023-07-21T11:01:58.974Z,9.45
2023-07-21T11:04:29.425Z,10.95
2023-07-21T11:07:01.480Z,4.53
2023-07-21T11:09:36.619Z,5.82
2023-07-21T11:12:11.126Z,11.50
2023-07-21T11:14:41.995Z,5.05
2023-07-21T11:17:12.631Z,6.20
2023-07-21T11:19:43.136Z,6.30
2023-07-21T11:22:13.497Z,5.53
2023-07-21T11:24:47.353Z,4.93
2023-07-21T11:27:18.931Z,5.15
2023-07-21T11:29:49.184Z,6.03
2023-07-21T11:32:25.218Z,5.15
2023-07-21T11:34:59.793Z,9.15
2023-07-21T11:37:42.298Z,3.72
2023-07-21T11:40:21.109Z,9.35
2023-07-21T11:42:52.232Z,3.92
2023-07-21T11:45:39.615Z,2.50
2023-07-21T11:48:21.152Z,4.13
2023-07-21T11:50:52.663Z,6.45
2023-07-21T11:53:27.435Z,2.47
2023-07-21T11:55:57.825Z,4.78
2023-07-21T11:58:29.006Z,4.30
2023-07-21T12:00:59.229Z,4.32
2023-07-21T12:03:29.716Z,2.17
2023-07-21T12:06:00.098Z,2.92
2023-07-21T12:08:31.813Z,4.07
2023-07-21T12:11:06.833Z,2.90
2023-07-21T12:13:37.625Z,3.65
2023-07-21T12:16:09.518Z,4.43
2023-07-21T12:18:40.877Z,3.83
2023-07-21T12:21:11.724Z,5.32
2023-07-21T12:23:42.135Z,2.05
2023-07-21T12:26:12.489Z,2.40
2023-07-21T12:28:47.397Z,5.47
2023-07-21T12:31:18.929Z,3.22
2023-07-21T12:33:50.863Z,4.05
2023-07-21T12:36:22.160Z,3.47
2023-07-21T12:38:53.637Z,3.58
2023-07-21T12:41:24.267Z,2.85
2023-07-21T12:43:55.037Z,3.08
2023-07-21T12:46:25.720Z,2.33
2023-07-21T12:48:56.538Z,2.40
2023-07-21T12:51:26.890Z,4.00
2023-07-21T12:53:57.475Z,1.67
2023-07-21T12:56:28.318Z,1.88
2023-07-21T12:58:59.264Z,3.05
2023-07-21T13:01:29.579Z,4.20
2023-07-21T13:04:00.320Z,3.08
2023-07-21T13:06:32.634Z,3.70
2023-07-21T13:09:04.694Z,3.00
2023-07-21T13:11:35.192Z,5.50
2023-07-21T13:14:06.087Z,1.45
2023-07-21T13:16:36.645Z,3.35
2023-07-21T13:19:07.903Z,5.05
2023-07-21T13:21:40.445Z,2.50
2023-07-21T13:24:10.813Z,2.92
2023-07-21T13:26:42.815Z,5.05
2023-07-21T13:29:14.272Z,2.85
2023-07-21T13:31:44.783Z,3.97
2023-07-21T13:34:15.187Z,5.28
2023-07-21T13:36:47.171Z,4.07
2023-07-21T13:39:18.382Z,3.75
2023-07-21T13:41:49.965Z,3.25
2023-07-21T13:44:20.500Z,2.72
2023-07-21T13:46:50.879Z,4.03
2023-07-21T13:49:24.311Z,2.92
2023-07-21T13:51:57.689Z,4.72
2023-07-21T13:54:28.368Z,5.22
2023-07-21T13:57:00.183Z,3.20
2023-07-21T13:59:30.722Z,6.07
2023-07-21T14:02:01.277Z,2.97
2023-07-21T14:04:32.452Z,3.58
2023-07-21T14:07:03.703Z,6.70
2023-07-21T14:09:34.578Z,3.50
2023-07-21T14:12:04.964Z,3.17
2023-07-21T14:14:39.065Z,3.80
2023-07-21T14:17:10.743Z,4.47
2023-07-21T14:19:42.713Z,3.55
2023-07-21T14:22:13.106Z,5.13
2023-07-21T14:24:43.689Z,3.72
2023-07-21T14:27:14.140Z,2.72
2023-07-21T14:29:53.660Z,3.05
2023-07-21T14:32:24.841Z,2.67
2023-07-21T14:34:55.369Z,3.60
2023-07-21T14:37:26.852Z,2.88
2023-07-21T14:39:58.152Z,2.95
2023-07-21T14:42:29.215Z,3.28
2023-07-21T14:45:02.675Z,3.13
2023-07-21T14:47:42.099Z,2.72
2023-07-21T14:50:13.564Z,4.95
2023-07-21T14:52:44.247Z,5.35
2023-07-21T14:55:15.548Z,5.28
2023-07-21T14:57:46.626Z,4.10
2023-07-21T15:00:22.790Z,2.72
2023-07-21T15:02:55.335Z,2.67
2023-07-21T15:05:25.580Z,4.15
2023-07-21T15:07:56.381Z,3.65
2023-07-21T15:10:27.069Z,2.45
2023-07-21T15:12:58.002Z,2.25
2023-07-21T15:15:28.028Z,1.92
2023-07-21T15:17:59.627Z,3.53
2023-07-21T15:20:30.874Z,2.97
2023-07-21T15:23:01.755Z,1.95
2023-07-21T15:25:32.542Z,3.90
2023-07-21T15:28:03.173Z,3.97
2023-07-21T15:30:33.535Z,3.75
2023-07-21T15:33:06.188Z,2.17
2023-07-21T15:35:46.861Z,2.58
2023-07-21T15:38:20.645Z,4.18
2023-07-21T15:40:50.675Z,3.67
2023-07-21T15:43:21.292Z,2.67
2023-07-21T15:45:53.969Z,2.85
2023-07-21T15:48:24.920Z,2.13
2023-07-21T15:50:55.335Z,3.45
2023-07-21T15:53:25.671Z,2.83
2023-07-21T15:56:05.841Z,2.75
2023-07-21T15:58:45.527Z,2.35
2023-07-21T16:01:18.938Z,4.60
2023-07-21T16:04:01.566Z,3.60
2023-07-21T16:06:32.976Z,3.55
2023-07-21T16:09:06.424Z,2.40
2023-07-21T16:11:39.160Z,2.85
2023-07-21T16:14:09.625Z,4.05
2023-07-21T16:16:39.760Z,2.97
2023-07-21T16:19:18.071Z,3.25
2023-07-21T16:24:24.152Z,4.00
2023-07-21T16:26:54.819Z,3.05
2023-07-21T16:29:28.080Z,4.03
2023-07-21T16:31:58.188Z,1.70
2023-07-21T16:34:35.540Z,2.92
2023-07-21T16:37:08.417Z,4.15
2023-07-21T16:39:46.966Z,3.75
2023-07-21T16:42:17.513Z,3.83
2023-07-21T16:44:47.946Z,3.63
2023-07-21T16:47:18.325Z,3.17
2023-07-21T16:49:48.745Z,2.90
2023-07-21T16:52:21.767Z,3.92
2023-07-21T16:54:58.317Z,2.65
2023-07-21T16:57:30.139Z,2.45
2023-07-21T17:00:13.545Z,3.72
2023-07-21T17:02:44.069Z,5.03
2023-07-21T17:05:30.148Z,3.40
2023-07-21T17:08:12.993Z,5.47
2023-07-21T17:10:46.443Z,5.72
2023-07-21T17:13:19.862Z,5.55
2023-07-21T17:15:53.254Z,7.15
2023-07-21T17:18:34.137Z,4.97
2023-07-21T17:21:05.553Z,5.97
2023-07-21T17:23:38.892Z,4.68
2023-07-21T17:26:10.063Z,5.65
2023-07-21T17:28:43.393Z,3.72
2023-07-21T17:31:17.042Z,4.88
2023-07-21T17:33:52.543Z,6.45
2023-07-21T17:36:22.864Z,6.25
2023-07-21T17:38:56.726Z,5.20
2023-07-21T17:41:27.519Z,3.88
2023-07-21T17:43:59.636Z,6.07
2023-07-21T17:46:30.454Z,8.65
2023-07-21T17:51:53.612Z,7.75
2023-07-21T17:54:24.014Z,8.70
2023-07-21T17:56:54.588Z,6.95
2023-07-21T17:59:24.908Z,5.38
2023-07-21T18:01:55.156Z,7.68
2023-07-21T18:04:25.608Z,7.25
2023-07-21T18:06:56.034Z,3.85
2023-07-21T18:09:27.578Z,7.10
2023-07-21T18:11:58.573Z,8.00
2023-07-21T18:14:28.965Z,4.68
2023-07-21T18:16:59.208Z,5.20
2023-07-21T18:19:29.480Z,5.53
2023-07-21T18:21:59.716Z,7.20
2023-07-21T18:24:30.146Z,9.90
2023-07-21T18:27:00.669Z,6.05
2023-07-21T18:29:31.171Z,8.15
2023-07-21T18:32:04.107Z,4.63
2023-07-21T18:34:34.751Z,8.60
2023-07-21T18:37:05.283Z,3.70
2023-07-21T18:39:35.647Z,8.10
2023-07-21T18:42:06.252Z,3.88
2023-07-21T18:44:36.663Z,4.85
2023-07-21T18:47:07.336Z,4.28
2023-07-21T18:49:37.643Z,6.57
2023-07-21T18:52:08.313Z,5.40
2023-07-21T18:54:38.782Z,5.38
2023-07-21T18:57:09.162Z,5.90
2023-07-21T18:59:39.559Z,8.35
2023-07-21T19:02:09.903Z,4.22
2023-07-21T19:04:43.047Z,4.90
2023-07-21T19:07:14.212Z,5.55
2023-07-21T19:09:44.501Z,8.65
2023-07-21T19:12:14.452Z,7.20
2023-07-21T19:14:47.955Z,7.10
2023-07-21T19:17:21.376Z,4.05
2023-07-21T19:19:53.960Z,5.65
2023-07-21T19:22:24.409Z,7.38
2023-07-21T19:24:54.545Z,4.38
2023-07-21T19:27:24.890Z,5.53
2023-07-21T19:29:55.646Z,7.10
2023-07-21T19:32:26.425Z,6.65
2023-07-21T19:34:56.895Z,4.78
2023-07-21T19:37:27.324Z,5.90
2023-07-21T19:39:58.039Z,5.35
2023-07-21T19:42:29.175Z,8.15
2023-07-21T19:44:59.702Z,9.55
2023-07-21T19:47:31.027Z,3.70
2023-07-21T19:50:01.934Z,5.28
2023-07-21T19:52:32.204Z,5.65
2023-07-21T19:55:03.472Z,7.88
2023-07-21T19:57:36.611Z,8.27
2023-07-21T20:00:07.800Z,6.15
2023-07-21T20:02:39.026Z,6.35
2023-07-21T20:05:11.047Z,5.53
2023-07-21T20:07:41.389Z,5.90
2023-07-21T20:10:12.697Z,10.60
2023-07-21T20:12:54.988Z,11.98
2023-07-21T20:15:25.904Z,9.27
2023-07-21T20:17:56.291Z,11.27
2023-07-21T20:20:26.979Z,10.52
2023-07-21T20:22:57.524Z,8.20
2023-07-21T20:25:27.970Z,6.88
2023-07-21T20:27:58.305Z,7.40
2023-07-21T20:30:28.964Z,8.02
2023-07-21T20:33:02.380Z,6.75
2023-07-21T20:35:32.860Z,7.85
2023-07-21T20:38:03.929Z,8.00
2023-07-21T20:44:15.901Z,7.07
2023-07-21T20:46:49.558Z,8.73
2023-07-21T20:49:19.834Z,9.10
2023-07-21T20:51:52.868Z,10.57
2023-07-21T20:54:26.487Z,6.32
2023-07-21T20:56:57.042Z,7.75
2023-07-21T20:59:36.623Z,6.57
2023-07-21T21:02:10.196Z,10.57
2023-07-21T21:04:44.104Z,8.68
2023-07-21T21:07:15.510Z,6.20
2023-07-21T21:09:48.611Z,7.30
2023-07-21T21:12:19.542Z,10.45
2023-07-21T21:14:52.985Z,7.93
2023-07-21T21:17:26.361Z,7.78
2023-07-21T21:19:57.146Z,6.97
2023-07-21T21:22:28.988Z,6.50
2023-07-21T21:24:59.292Z,7.63
2023-07-21T21:27:32.521Z,7.20
2023-07-21T21:30:03.226Z,10.65
2023-07-21T21:32:36.514Z,8.20
2023-07-21T21:35:07.309Z,10.07
2023-07-21T21:37:40.341Z,6.75
2023-07-21T21:40:13.305Z,6.93
2023-07-21T21:42:46.590Z,8.02
2023-07-21T21:45:19.960Z,8.60
2023-07-21T21:47:50.741Z,8.85
2023-07-21T21:50:20.999Z,7.90
2023-07-21T21:52:51.417Z,10.55
2023-07-21T21:55:24.164Z,9.50
2023-07-21T21:57:54.868Z,9.50
2023-07-21T22:00:25.176Z,10.50
2023-07-21T22:02:55.849Z,10.02
2023-07-21T22:05:26.531Z,9.85
2023-07-21T22:07:56.887Z,8.80
2023-07-21T22:10:29.555Z,12.05
2023-07-21T22:13:02.760Z,8.23
2023-07-21T22:15:33.243Z,10.55
2023-07-21T22:18:04.047Z,9.82
2023-07-21T22:20:35.014Z,11.80
2023-07-21T22:23:05.490Z,8.85
2023-07-21T22:25:36.038Z,8.55
2023-07-21T22:28:09.402Z,11.88
2023-07-21T22:30:43.088Z,13.25
2023-07-21T22:33:13.919Z,13.38
2023-07-21T22:35:46.908Z,11.40
2023-07-21T22:38:20.764Z,11.98
2023-07-21T22:40:54.240Z,12.80
2023-07-21T22:43:24.717Z,10.05
2023-07-21T22:46:01.463Z,14.73
2023-07-21T22:48:32.899Z,10.68
2023-07-21T22:51:13.817Z,14.73
2023-07-21T22:53:44.237Z,11.75
2023-07-21T22:56:14.826Z,14.45
2023-07-21T22:58:51.165Z,15.48
2023-07-21T23:01:21.892Z,15.68
2023-07-21T23:03:52.756Z,10.15
2023-07-21T23:06:24.488Z,12.23
2023-07-21T23:08:55.178Z,14.32
2023-07-21T23:11:26.159Z,15.73
2023-07-21T23:13:57.388Z,14.25
2023-07-21T23:16:33.117Z,17.60
2023-07-21T23:19:09.850Z,16.50
2023-07-21T23:21:40.225Z,17.13
2023-07-21T23:24:12.033Z,19.73
2023-07-21T23:26:44.096Z,18.40
2023-07-21T23:29:14.842Z,24.50
2023-07-21T23:31:50.932Z,19.77
2023-07-21T23:34:21.510Z,19.92
2023-07-21T23:36:57.749Z,23.67
2023-07-21T23:39:28.617Z,16.08
2023-07-21T23:42:02.248Z,19.75
2023-07-21T23:44:38.090Z,19.77
2023-07-21T23:47:11.538Z,16.92
2023-07-21T23:49:43.199Z,19.85
2023-07-21T23:52:16.428Z,21.73
2023-07-21T23:54:54.142Z,19.17
2023-07-21T23:57:24.598Z,19.70
2023-07-21T23:59:55.084Z,18.40
